sensor_id;sensor_type;location;lat;lon;timestamp;pressure;altitude;pressure_sealevel;temperature;humidity
82171;BME280;71755;48.038;14.346;2023-11-25T00:00:14;95896.97;;;-0.50;100.00
82171;BME280;71755;48.038;14.346;2023-11-25T00:02:42;95901.78;;;-0.47;100.00
82171;BME280;71755;48.038;14.346;2023-11-25T00:05:10;95917.84;;;-0.37;100.00
82171;BME280;71755;48.038;14.346;2023-11-25T00:07:36;95918.00;;;-0.32;100.00
82171;BME280;71755;48.038;14.346;2023-11-25T00:10:01;95913.28;;;-0.23;100.00
82171;BME280;71755;48.038;14.346;2023-11-25T00:12:29;95907.16;;;-0.17;100.00
82171;BME280;71755;48.038;14.346;2023-11-25T00:14:55;95908.09;;;-0.12;100.00
82171;BME280;71755;48.038;14.346;2023-11-25T00:17:20;95908.69;;;-0.10;100.00
82171;BME280;71755;48.038;14.346;2023-11-25T00:19:47;95920.78;;;-0.09;100.00
82171;BME280;71755;48.038;14.346;2023-11-25T00:22:13;95895.13;;;-0.07;100.00
82171;BME280;71755;48.038;14.346;2023-11-25T00:24:39;95894.91;;;-0.05;100.00
82171;BME280;71755;48.038;14.346;2023-11-25T00:27:05;95898.09;;;-0.03;100.00
82171;BME280;71755;48.038;14.346;2023-11-25T00:29:31;95894.25;;;-0.01;100.00
82171;BME280;71755;48.038;14.346;2023-11-25T00:31:57;95906.56;;;-0.01;100.00
82171;BME280;71755;48.038;14.346;2023-11-25T00:34:23;95902.44;;;0.10;100.00
82171;BME280;71755;48.038;14.346;2023-11-25T00:36:50;95904.75;;;0.18;100.00
82171;BME280;71755;48.038;14.346;2023-11-25T00:39:17;95899.16;;;0.14;100.00
82171;BME280;71755;48.038;14.346;2023-11-25T00:41:45;95909.22;;;0.17;100.00
82171;BME280;71755;48.038;14.346;2023-11-25T00:44:12;95896.75;;;0.13;100.00
82171;BME280;71755;48.038;14.346;2023-11-25T00:46:37;95897.91;;;0.17;100.00
82171;BME280;71755;48.038;14.346;2023-11-25T00:49:03;95901.09;;;0.19;100.00
82171;BME280;71755;48.038;14.346;2023-11-25T00:51:30;95903.97;;;0.17;100.00
82171;BME280;71755;48.038;14.346;2023-11-25T00:53:57;95898.69;;;0.17;100.00
82171;BME280;71755;48.038;14.346;2023-11-25T00:56:23;95897.75;;;0.12;100.00
82171;BME280;71755;48.038;14.346;2023-11-25T00:58:49;95904.91;;;0.05;100.00
82171;BME280;71755;48.038;14.346;2023-11-25T01:01:14;95892.00;;;0.03;100.00
82171;BME280;71755;48.038;14.346;2023-11-25T01:03:39;95884.34;;;0.02;100.00
82171;BME280;71755;48.038;14.346;2023-11-25T01:06:06;95886.75;;;0.03;100.00
82171;BME280;71755;48.038;14.346;2023-11-25T01:08:33;95873.34;;;0.11;100.00
82171;BME280;71755;48.038;14.346;2023-11-25T01:10:58;95870.03;;;0.16;100.00
82171;BME280;71755;48.038;14.346;2023-11-25T01:13:24;95859.53;;;0.16;100.00
82171;BME280;71755;48.038;14.346;2023-11-25T01:15:50;95851.00;;;0.20;100.00
82171;BME280;71755;48.038;14.346;2023-11-25T01:18:20;95855.59;;;0.25;100.00
82171;BME280;71755;48.038;14.346;2023-11-25T01:20:46;95842.81;;;0.28;100.00
82171;BME280;71755;48.038;14.346;2023-11-25T01:23:12;95845.66;;;0.27;100.00
82171;BME280;71755;48.038;14.346;2023-11-25T01:25:38;95856.28;;;0.32;100.00
82171;BME280;71755;48.038;14.346;2023-11-25T01:28:03;95876.63;;;0.37;100.00
82171;BME280;71755;48.038;14.346;2023-11-25T01:30:29;95870.09;;;0.27;100.00
82171;BME280;71755;48.038;14.346;2023-11-25T01:32:59;95874.50;;;0.15;100.00
82171;BME280;71755;48.038;14.346;2023-11-25T01:35:27;95876.16;;;-0.09;100.00
82171;BME280;71755;48.038;14.346;2023-11-25T01:37:52;95880.97;;;-0.24;100.00
82171;BME280;71755;48.038;14.346;2023-11-25T01:40:20;95883.78;;;-0.44;100.00
82171;BME280;71755;48.038;14.346;2023-11-25T01:42:49;95843.94;;;-0.52;100.00
82171;BME280;71755;48.038;14.346;2023-11-25T01:45:14;95890.31;;;-0.53;100.00
82171;BME280;71755;48.038;14.346;2023-11-25T01:47:41;95873.06;;;-0.42;100.00
82171;BME280;71755;48.038;14.346;2023-11-25T01:50:07;95876.06;;;-0.39;100.00
82171;BME280;71755;48.038;14.346;2023-11-25T01:52:33;95880.13;;;0.01;99.71
82171;BME280;71755;48.038;14.346;2023-11-25T01:55:00;95880.81;;;0.26;96.16
82171;BME280;71755;48.038;14.346;2023-11-25T01:57:28;95875.91;;;0.48;94.08
82171;BME280;71755;48.038;14.346;2023-11-25T01:59:55;95881.25;;;0.41;94.74
82171;BME280;71755;48.038;14.346;2023-11-25T02:02:25;95885.13;;;0.39;95.13
82171;BME280;71755;48.038;14.346;2023-11-25T02:04:51;95875.66;;;0.38;95.08
82171;BME280;71755;48.038;14.346;2023-11-25T02:07:17;95875.25;;;0.34;95.82
82171;BME280;71755;48.038;14.346;2023-11-25T02:09:43;95874.22;;;0.35;95.72
82171;BME280;71755;48.038;14.346;2023-11-25T02:12:09;95875.56;;;0.26;96.70
82171;BME280;71755;48.038;14.346;2023-11-25T02:14:36;95867.09;;;0.24;96.72
82171;BME280;71755;48.038;14.346;2023-11-25T02:17:03;95871.78;;;0.22;97.05
82171;BME280;71755;48.038;14.346;2023-11-25T02:19:30;95878.50;;;0.18;97.75
82171;BME280;71755;48.038;14.346;2023-11-25T02:21:57;95864.56;;;0.17;98.31
82171;BME280;71755;48.038;14.346;2023-11-25T02:24:26;95860.91;;;0.18;98.16
82171;BME280;71755;48.038;14.346;2023-11-25T02:26:57;95859.09;;;0.19;98.32
82171;BME280;71755;48.038;14.346;2023-11-25T02:29:23;95858.97;;;0.14;98.50
82171;BME280;71755;48.038;14.346;2023-11-25T02:31:49;95867.41;;;0.16;98.54
82171;BME280;71755;48.038;14.346;2023-11-25T02:34:15;95854.50;;;0.14;99.11
82171;BME280;71755;48.038;14.346;2023-11-25T02:36:41;95845.84;;;0.14;98.98
82171;BME280;71755;48.038;14.346;2023-11-25T02:39:06;95846.28;;;0.11;99.64
82171;BME280;71755;48.038;14.346;2023-11-25T02:41:33;95835.78;;;0.11;99.75
82171;BME280;71755;48.038;14.346;2023-11-25T02:44:00;95833.72;;;0.13;99.03
82171;BME280;71755;48.038;14.346;2023-11-25T02:46:26;95839.78;;;0.13;99.27
82171;BME280;71755;48.038;14.346;2023-11-25T02:48:53;95837.38;;;0.12;99.50
82171;BME280;71755;48.038;14.346;2023-11-25T02:51:19;95832.34;;;0.10;99.97
82171;BME280;71755;48.038;14.346;2023-11-25T02:53:45;95836.44;;;0.06;100.00
82171;BME280;71755;48.038;14.346;2023-11-25T02:56:11;95854.47;;;0.03;100.00
82171;BME280;71755;48.038;14.346;2023-11-25T02:58:37;95851.66;;;-0.03;100.00
82171;BME280;71755;48.038;14.346;2023-11-25T03:01:03;95847.66;;;-0.05;100.00
82171;BME280;71755;48.038;14.346;2023-11-25T03:03:33;95836.00;;;-0.09;100.00
82171;BME280;71755;48.038;14.346;2023-11-25T03:06:02;95837.16;;;-0.05;100.00
82171;BME280;71755;48.038;14.346;2023-11-25T03:08:31;95850.84;;;-0.03;100.00
82171;BME280;71755;48.038;14.346;2023-11-25T03:11:00;95846.19;;;-0.01;100.00
82171;BME280;71755;48.038;14.346;2023-11-25T03:13:30;95847.00;;;-0.01;100.00
82171;BME280;71755;48.038;14.346;2023-11-25T03:15:56;95847.38;;;0.03;100.00
82171;BME280;71755;48.038;14.346;2023-11-25T03:18:21;95848.00;;;0.17;99.87
82171;BME280;71755;48.038;14.346;2023-11-25T03:20:47;95840.22;;;0.10;100.00
82171;BME280;71755;48.038;14.346;2023-11-25T03:23:14;95839.69;;;0.20;99.04
82171;BME280;71755;48.038;14.346;2023-11-25T03:25:39;95847.13;;;0.23;98.78
82171;BME280;71755;48.038;14.346;2023-11-25T03:28:06;95833.69;;;0.31;97.36
82171;BME280;71755;48.038;14.346;2023-11-25T03:30:34;95851.25;;;0.30;97.23
82171;BME280;71755;48.038;14.346;2023-11-25T03:33:00;95847.72;;;0.25;97.90
82171;BME280;71755;48.038;14.346;2023-11-25T03:35:26;95859.00;;;0.25;97.50
82171;BME280;71755;48.038;14.346;2023-11-25T03:37:52;95864.19;;;0.32;96.27
82171;BME280;71755;48.038;14.346;2023-11-25T03:40:19;95853.66;;;0.32;95.67
82171;BME280;71755;48.038;14.346;2023-11-25T03:42:44;95874.00;;;0.37;94.82
82171;BME280;71755;48.038;14.346;2023-11-25T03:45:13;95877.44;;;0.37;95.03
82171;BME280;71755;48.038;14.346;2023-11-25T03:47:42;95900.81;;;0.45;93.20
82171;BME280;71755;48.038;14.346;2023-11-25T03:50:09;95886.34;;;0.36;94.86
82171;BME280;71755;48.038;14.346;2023-11-25T03:52:38;95896.84;;;0.36;94.36
82171;BME280;71755;48.038;14.346;2023-11-25T03:55:04;95909.34;;;0.41;93.28
82171;BME280;71755;48.038;14.346;2023-11-25T03:57:30;95929.56;;;0.40;92.72
82171;BME280;71755;48.038;14.346;2023-11-25T03:59:56;95936.34;;;0.48;91.33
82171;BME280;71755;48.038;14.346;2023-11-25T04:02:22;95937.00;;;0.43;91.87
82171;BME280;71755;48.038;14.346;2023-11-25T04:04:47;95950.13;;;0.43;90.86
82171;BME280;71755;48.038;14.346;2023-11-25T04:07:13;95965.88;;;0.43;90.28
82171;BME280;71755;48.038;14.346;2023-11-25T04:09:38;95962.72;;;0.35;90.64
82171;BME280;71755;48.038;14.346;2023-11-25T04:12:04;95981.78;;;0.30;91.78
82171;BME280;71755;48.038;14.346;2023-11-25T04:14:30;95993.31;;;0.29;91.06
82171;BME280;71755;48.038;14.346;2023-11-25T04:16:55;95991.13;;;0.26;91.82
82171;BME280;71755;48.038;14.346;2023-11-25T04:19:21;96000.44;;;0.22;92.23
82171;BME280;71755;48.038;14.346;2023-11-25T04:21:47;96015.41;;;0.21;92.42
82171;BME280;71755;48.038;14.346;2023-11-25T04:24:15;96017.81;;;0.23;92.18
82171;BME280;71755;48.038;14.346;2023-11-25T04:26:43;96021.09;;;0.18;93.10
82171;BME280;71755;48.038;14.346;2023-11-25T04:29:08;96032.19;;;0.20;92.16
82171;BME280;71755;48.038;14.346;2023-11-25T04:31:34;96029.56;;;0.20;92.35
82171;BME280;71755;48.038;14.346;2023-11-25T04:34:02;96056.19;;;0.24;92.11
82171;BME280;71755;48.038;14.346;2023-11-25T04:36:28;96054.00;;;0.21;92.20
82171;BME280;71755;48.038;14.346;2023-11-25T04:38:54;96059.03;;;0.22;91.95
82171;BME280;71755;48.038;14.346;2023-11-25T04:41:22;96065.06;;;0.23;91.79
82171;BME280;71755;48.038;14.346;2023-11-25T04:43:48;96066.09;;;0.22;92.28
82171;BME280;71755;48.038;14.346;2023-11-25T04:46:15;96085.28;;;0.22;91.88
82171;BME280;71755;48.038;14.346;2023-11-25T04:48:41;96081.03;;;0.21;92.41
82171;BME280;71755;48.038;14.346;2023-11-25T04:51:06;96094.41;;;0.20;92.22
82171;BME280;71755;48.038;14.346;2023-11-25T04:53:32;96098.47;;;0.16;92.80
82171;BME280;71755;48.038;14.346;2023-11-25T04:55:58;96098.53;;;0.09;94.01
82171;BME280;71755;48.038;14.346;2023-11-25T04:58:25;96107.25;;;0.03;94.15
82171;BME280;71755;48.038;14.346;2023-11-25T05:00:51;96107.31;;;-0.35;100.00
82171;BME280;71755;48.038;14.346;2023-11-25T05:03:16;96115.00;;;-0.40;100.00
82171;BME280;71755;48.038;14.346;2023-11-25T05:05:42;96125.47;;;-0.40;100.00
82171;BME280;71755;48.038;14.346;2023-11-25T05:08:07;96119.63;;;-0.36;100.00
82171;BME280;71755;48.038;14.346;2023-11-25T05:10:33;96139.41;;;-0.33;100.00
82171;BME280;71755;48.038;14.346;2023-11-25T05:12:59;96145.44;;;-0.33;100.00
82171;BME280;71755;48.038;14.346;2023-11-25T05:15:25;96147.06;;;-0.32;100.00
82171;BME280;71755;48.038;14.346;2023-11-25T05:17:52;96166.00;;;-0.29;100.00
82171;BME280;71755;48.038;14.346;2023-11-25T05:20:18;96163.56;;;-0.24;99.42
82171;BME280;71755;48.038;14.346;2023-11-25T05:22:43;96163.19;;;-0.28;99.94
82171;BME280;71755;48.038;14.346;2023-11-25T05:25:09;96169.78;;;-0.19;98.39
82171;BME280;71755;48.038;14.346;2023-11-25T05:27:42;96178.66;;;-0.20;98.65
82171;BME280;71755;48.038;14.346;2023-11-25T05:30:08;96184.50;;;-0.18;98.34
82171;BME280;71755;48.038;14.346;2023-11-25T05:32:40;96201.44;;;-0.14;97.29
82171;BME280;71755;48.038;14.346;2023-11-25T05:35:05;96196.63;;;-0.17;98.06
82171;BME280;71755;48.038;14.346;2023-11-25T05:37:32;96200.47;;;-0.19;97.47
82171;BME280;71755;48.038;14.346;2023-11-25T05:39:58;96205.97;;;-0.27;98.77
82171;BME280;71755;48.038;14.346;2023-11-25T05:42:25;96232.63;;;-0.30;99.38
82171;BME280;71755;48.038;14.346;2023-11-25T05:44:53;96234.66;;;-0.33;99.44
82171;BME280;71755;48.038;14.346;2023-11-25T05:47:19;96255.84;;;-0.34;99.92
82171;BME280;71755;48.038;14.346;2023-11-25T05:49:47;96260.09;;;-0.33;99.33
82171;BME280;71755;48.038;14.346;2023-11-25T05:52:12;96259.50;;;-0.35;99.41
82171;BME280;71755;48.038;14.346;2023-11-25T05:54:38;96262.09;;;-0.35;99.47
82171;BME280;71755;48.038;14.346;2023-11-25T05:57:04;96275.22;;;-0.35;99.19
82171;BME280;71755;48.038;14.346;2023-11-25T05:59:29;96274.22;;;-0.34;99.02
82171;BME280;71755;48.038;14.346;2023-11-25T06:01:55;96281.06;;;-0.33;98.36
82171;BME280;71755;48.038;14.346;2023-11-25T06:04:20;96279.47;;;-0.34;97.83
82171;BME280;71755;48.038;14.346;2023-11-25T06:06:46;96285.72;;;-0.35;98.50
82171;BME280;71755;48.038;14.346;2023-11-25T06:09:11;96292.78;;;-0.36;98.09
82171;BME280;71755;48.038;14.346;2023-11-25T06:11:37;96303.50;;;-0.37;97.57
82171;BME280;71755;48.038;14.346;2023-11-25T06:14:03;96302.66;;;-0.38;97.46
82171;BME280;71755;48.038;14.346;2023-11-25T06:16:28;96312.97;;;-0.36;97.17
82171;BME280;71755;48.038;14.346;2023-11-25T06:18:54;96314.78;;;-0.37;96.99
82171;BME280;71755;48.038;14.346;2023-11-25T06:21:21;96320.84;;;-0.43;97.50
82171;BME280;71755;48.038;14.346;2023-11-25T06:23:47;96328.91;;;-0.44;97.92
82171;BME280;71755;48.038;14.346;2023-11-25T06:26:14;96341.44;;;-0.46;97.80
82171;BME280;71755;48.038;14.346;2023-11-25T06:28:42;96343.44;;;-0.48;97.14
82171;BME280;71755;48.038;14.346;2023-11-25T06:31:09;96353.53;;;-0.45;96.78
82171;BME280;71755;48.038;14.346;2023-11-25T06:33:35;96348.88;;;-0.43;94.80
82171;BME280;71755;48.038;14.346;2023-11-25T06:36:01;96361.81;;;-0.48;95.74
82171;BME280;71755;48.038;14.346;2023-11-25T06:38:26;96372.13;;;-0.67;97.66
82171;BME280;71755;48.038;14.346;2023-11-25T06:40:52;96369.53;;;-0.73;97.41
82171;BME280;71755;48.038;14.346;2023-11-25T06:43:18;96372.13;;;-0.67;96.83
82171;BME280;71755;48.038;14.346;2023-11-25T06:45:44;96386.03;;;-0.59;95.57
82171;BME280;71755;48.038;14.346;2023-11-25T06:48:11;96386.63;;;-0.51;93.01
82171;BME280;71755;48.038;14.346;2023-11-25T06:50:39;96401.75;;;-0.46;90.85
82171;BME280;71755;48.038;14.346;2023-11-25T06:53:05;96411.66;;;-0.48;90.39
82171;BME280;71755;48.038;14.346;2023-11-25T06:55:32;96425.19;;;-0.51;90.53
82171;BME280;71755;48.038;14.346;2023-11-25T06:57:57;96424.97;;;-0.50;89.57
82171;BME280;71755;48.038;14.346;2023-11-25T07:00:23;96419.31;;;-0.53;90.38
82171;BME280;71755;48.038;14.346;2023-11-25T07:02:49;96418.72;;;-0.55;90.46
82171;BME280;71755;48.038;14.346;2023-11-25T07:05:15;96423.16;;;-0.56;88.94
82171;BME280;71755;48.038;14.346;2023-11-25T07:07:41;96427.41;;;-0.55;87.20
82171;BME280;71755;48.038;14.346;2023-11-25T07:10:07;96437.09;;;-0.55;87.95
82171;BME280;71755;48.038;14.346;2023-11-25T07:12:39;96428.59;;;-0.57;87.82
82171;BME280;71755;48.038;14.346;2023-11-25T07:15:05;96433.84;;;-0.57;87.45
82171;BME280;71755;48.038;14.346;2023-11-25T07:17:32;96440.91;;;-0.58;87.00
82171;BME280;71755;48.038;14.346;2023-11-25T07:19:59;96443.34;;;-0.56;87.41
82171;BME280;71755;48.038;14.346;2023-11-25T07:22:24;96446.97;;;-0.57;86.32
82171;BME280;71755;48.038;14.346;2023-11-25T07:24:50;96453.81;;;-0.56;86.16
82171;BME280;71755;48.038;14.346;2023-11-25T07:27:16;96451.22;;;-0.56;86.69
82171;BME280;71755;48.038;14.346;2023-11-25T07:29:46;96444.94;;;-0.55;86.87
82171;BME280;71755;48.038;14.346;2023-11-25T07:32:13;96450.59;;;-0.52;85.87
82171;BME280;71755;48.038;14.346;2023-11-25T07:34:39;96458.25;;;-0.50;86.33
82171;BME280;71755;48.038;14.346;2023-11-25T07:37:06;96449.78;;;-0.52;85.58
82171;BME280;71755;48.038;14.346;2023-11-25T07:39:33;96446.16;;;-0.51;84.80
82171;BME280;71755;48.038;14.346;2023-11-25T07:41:59;96453.44;;;-0.53;85.88
82171;BME280;71755;48.038;14.346;2023-11-25T07:44:30;96455.03;;;-0.52;85.72
82171;BME280;71755;48.038;14.346;2023-11-25T07:46:58;96451.81;;;-0.54;85.71
82171;BME280;71755;48.038;14.346;2023-11-25T07:49:24;96469.16;;;-0.53;85.29
82171;BME280;71755;48.038;14.346;2023-11-25T07:51:51;96470.78;;;-0.52;85.06
82171;BME280;71755;48.038;14.346;2023-11-25T07:54:16;96473.41;;;-0.52;85.50
82171;BME280;71755;48.038;14.346;2023-11-25T07:56:42;96468.97;;;-0.52;86.03
82171;BME280;71755;48.038;14.346;2023-11-25T07:59:07;96472.59;;;-0.53;84.60
82171;BME280;71755;48.038;14.346;2023-11-25T08:01:35;96492.38;;;-0.50;84.71
82171;BME280;71755;48.038;14.346;2023-11-25T08:04:02;96482.88;;;-0.51;85.28
82171;BME280;71755;48.038;14.346;2023-11-25T08:06:27;96486.31;;;-0.51;85.07
82171;BME280;71755;48.038;14.346;2023-11-25T08:08:53;96485.09;;;-0.48;85.17
82171;BME280;71755;48.038;14.346;2023-11-25T08:11:25;96485.91;;;-0.48;84.88
82171;BME280;71755;48.038;14.346;2023-11-25T08:13:52;96483.28;;;-0.48;84.46
82171;BME280;71755;48.038;14.346;2023-11-25T08:16:18;96489.34;;;-0.47;83.06
82171;BME280;71755;48.038;14.346;2023-11-25T08:18:44;96474.59;;;-0.48;85.23
82171;BME280;71755;48.038;14.346;2023-11-25T08:21:10;96476.44;;;-0.49;85.64
82171;BME280;71755;48.038;14.346;2023-11-25T08:23:37;96489.34;;;-0.47;84.67
82171;BME280;71755;48.038;14.346;2023-11-25T08:26:03;96484.69;;;-0.45;85.81
82171;BME280;71755;48.038;14.346;2023-11-25T08:28:29;96481.88;;;-0.44;83.90
82171;BME280;71755;48.038;14.346;2023-11-25T08:30:55;96485.31;;;-0.43;84.63
82171;BME280;71755;48.038;14.346;2023-11-25T08:33:20;96480.84;;;-0.43;84.99
82171;BME280;71755;48.038;14.346;2023-11-25T08:35:46;96480.47;;;-0.40;84.40
82171;BME280;71755;48.038;14.346;2023-11-25T08:38:11;96478.63;;;-0.39;84.88
82171;BME280;71755;48.038;14.346;2023-11-25T08:40:38;96477.03;;;-0.40;85.60
82171;BME280;71755;48.038;14.346;2023-11-25T08:43:06;96487.16;;;-0.37;85.02
82171;BME280;71755;48.038;14.346;2023-11-25T08:45:37;96483.50;;;-0.36;84.44
82171;BME280;71755;48.038;14.346;2023-11-25T08:48:04;96482.50;;;-0.35;84.74
82171;BME280;71755;48.038;14.346;2023-11-25T08:50:31;96475.63;;;-0.36;84.93
82171;BME280;71755;48.038;14.346;2023-11-25T08:52:57;96479.06;;;-0.36;84.89
82171;BME280;71755;48.038;14.346;2023-11-25T08:55:22;96475.44;;;-0.35;84.99
82171;BME280;71755;48.038;14.346;2023-11-25T08:57:50;96480.06;;;-0.30;84.38
82171;BME280;71755;48.038;14.346;2023-11-25T09:00:15;96482.28;;;-0.27;83.97
82171;BME280;71755;48.038;14.346;2023-11-25T09:02:48;96479.88;;;-0.22;83.21
82171;BME280;71755;48.038;14.346;2023-11-25T09:05:16;96484.50;;;-0.24;83.47
82171;BME280;71755;48.038;14.346;2023-11-25T09:07:43;96500.44;;;-0.19;83.78
82171;BME280;71755;48.038;14.346;2023-11-25T09:10:10;96482.88;;;-0.18;82.40
82171;BME280;71755;48.038;14.346;2023-11-25T09:12:36;96505.28;;;-0.16;80.50
82171;BME280;71755;48.038;14.346;2023-11-25T09:15:02;96507.91;;;-0.16;81.11
82171;BME280;71755;48.038;14.346;2023-11-25T09:17:31;96502.66;;;-0.16;79.74
82171;BME280;71755;48.038;14.346;2023-11-25T09:19:58;96494.78;;;-0.16;81.16
82171;BME280;71755;48.038;14.346;2023-11-25T09:22:25;96498.03;;;-0.14;80.43
82171;BME280;71755;48.038;14.346;2023-11-25T09:24:50;96498.22;;;-0.15;80.01
82171;BME280;71755;48.038;14.346;2023-11-25T09:27:15;96509.53;;;-0.15;80.05
82171;BME280;71755;48.038;14.346;2023-11-25T09:29:41;96515.19;;;-0.11;78.89
82171;BME280;71755;48.038;14.346;2023-11-25T09:32:08;96496.41;;;-0.15;78.43
82171;BME280;71755;48.038;14.346;2023-11-25T09:34:35;96505.09;;;-0.14;79.37
82171;BME280;71755;48.038;14.346;2023-11-25T09:37:01;96508.31;;;-0.19;80.46
82171;BME280;71755;48.038;14.346;2023-11-25T09:39:28;96506.50;;;-0.18;79.90
82171;BME280;71755;48.038;14.346;2023-11-25T09:41:53;96507.91;;;-0.16;79.84
82171;BME280;71755;48.038;14.346;2023-11-25T09:44:19;96506.91;;;-0.15;78.44
82171;BME280;71755;48.038;14.346;2023-11-25T09:46:49;96505.28;;;-0.16;78.44
82171;BME280;71755;48.038;14.346;2023-11-25T09:49:15;96504.06;;;-0.13;78.97
82171;BME280;71755;48.038;14.346;2023-11-25T09:51:42;96500.25;;;-0.17;79.30
82171;BME280;71755;48.038;14.346;2023-11-25T09:54:10;96501.84;;;-0.16;78.27
82171;BME280;71755;48.038;14.346;2023-11-25T09:56:39;96500.03;;;-0.16;79.27
82171;BME280;71755;48.038;14.346;2023-11-25T09:59:07;96497.41;;;-0.16;79.56
82171;BME280;71755;48.038;14.346;2023-11-25T10:01:32;96495.00;;;-0.17;78.27
82171;BME280;71755;48.038;14.346;2023-11-25T10:03:59;96497.81;;;-0.19;79.80
82171;BME280;71755;48.038;14.346;2023-11-25T10:06:28;96493.59;;;-0.20;79.38
82171;BME280;71755;48.038;14.346;2023-11-25T10:08:54;96496.81;;;-0.24;80.84
82171;BME280;71755;48.038;14.346;2023-11-25T10:11:20;96496.00;;;-0.25;81.24
82171;BME280;71755;48.038;14.346;2023-11-25T10:13:48;96497.44;;;-0.29;80.31
82171;BME280;71755;48.038;14.346;2023-11-25T10:16:19;96492.19;;;-0.29;81.71
82171;BME280;71755;48.038;14.346;2023-11-25T10:18:50;96488.97;;;-0.31;82.82
82171;BME280;71755;48.038;14.346;2023-11-25T10:21:16;96497.22;;;-0.34;81.20
82171;BME280;71755;48.038;14.346;2023-11-25T10:23:42;96493.81;;;-0.35;82.65
82171;BME280;71755;48.038;14.346;2023-11-25T10:26:08;96502.47;;;-0.34;81.41
82171;BME280;71755;48.038;14.346;2023-11-25T10:28:34;96501.88;;;-0.36;81.63
82171;BME280;71755;48.038;14.346;2023-11-25T10:31:02;96492.19;;;-0.36;81.20
82171;BME280;71755;48.038;14.346;2023-11-25T10:33:30;96495.00;;;-0.37;81.60
82171;BME280;71755;48.038;14.346;2023-11-25T10:35:56;96505.50;;;-0.37;80.98
82171;BME280;71755;48.038;14.346;2023-11-25T10:38:22;96501.88;;;-0.36;80.92
82171;BME280;71755;48.038;14.346;2023-11-25T10:43:24;96511.97;;;-0.33;81.00
82171;BME280;71755;48.038;14.346;2023-11-25T10:46:00;96512.38;;;-0.29;81.89
82171;BME280;71755;48.038;14.346;2023-11-25T10:48:26;96513.38;;;-0.30;80.92
82171;BME280;71755;48.038;14.346;2023-11-25T10:50:52;96515.00;;;-0.29;80.16
82171;BME280;71755;48.038;14.346;2023-11-25T10:53:18;96522.88;;;-0.29;80.12
82171;BME280;71755;48.038;14.346;2023-11-25T10:55:47;96519.22;;;-0.28;80.57
82171;BME280;71755;48.038;14.346;2023-11-25T10:58:13;96509.94;;;-0.31;81.07
82171;BME280;71755;48.038;14.346;2023-11-25T11:00:40;96498.44;;;-0.30;80.44
82171;BME280;71755;48.038;14.346;2023-11-25T11:03:12;96501.88;;;-0.29;79.84
82171;BME280;71755;48.038;14.346;2023-11-25T11:05:44;96512.38;;;-0.29;79.71
82171;BME280;71755;48.038;14.346;2023-11-25T11:08:18;96509.75;;;-0.29;79.42
82171;BME280;71755;48.038;14.346;2023-11-25T11:10:55;96501.88;;;-0.29;80.19
82171;BME280;71755;48.038;14.346;2023-11-25T11:13:23;96500.25;;;-0.30;79.61
82171;BME280;71755;48.038;14.346;2023-11-25T11:15:51;96513.38;;;-0.30;80.16
82171;BME280;71755;48.038;14.346;2023-11-25T11:18:24;96516.81;;;-0.30;80.74
82171;BME280;71755;48.038;14.346;2023-11-25T11:20:51;96504.50;;;-0.29;80.49
82171;BME280;71755;48.038;14.346;2023-11-25T11:23:20;96510.56;;;-0.29;78.62
82171;BME280;71755;48.038;14.346;2023-11-25T11:28:27;96512.97;;;-0.27;80.13
82171;BME280;71755;48.038;14.346;2023-11-25T11:33:41;96507.13;;;-0.29;80.34
82171;BME280;71755;48.038;14.346;2023-11-25T11:36:08;96513.19;;;-0.29;80.40
82171;BME280;71755;48.038;14.346;2023-11-25T11:38:44;96509.75;;;-0.29;80.28
82171;BME280;71755;48.038;14.346;2023-11-25T11:43:36;96510.16;;;-0.33;79.95
82171;BME280;71755;48.038;14.346;2023-11-25T11:46:03;96508.13;;;-0.30;80.45
82171;BME280;71755;48.038;14.346;2023-11-25T11:48:30;96499.44;;;-0.31;79.27
82171;BME280;71755;48.038;14.346;2023-11-25T11:50:55;96518.84;;;-0.32;79.89
82171;BME280;71755;48.038;14.346;2023-11-25T11:53:23;96505.09;;;-0.34;80.38
82171;BME280;71755;48.038;14.346;2023-11-25T11:55:52;96500.66;;;-0.34;80.13
82171;BME280;71755;48.038;14.346;2023-11-25T11:58:21;96499.06;;;-0.35;80.44
82171;BME280;71755;48.038;14.346;2023-11-25T12:00:48;96498.25;;;-0.35;80.66
82171;BME280;71755;48.038;14.346;2023-11-25T12:03:17;96515.81;;;-0.36;79.89
82171;BME280;71755;48.038;14.346;2023-11-25T12:05:44;96500.25;;;-0.37;80.16
82171;BME280;71755;48.038;14.346;2023-11-25T12:08:10;96484.69;;;-0.39;81.04
82171;BME280;71755;48.038;14.346;2023-11-25T12:10:36;96487.31;;;-0.39;81.18
82171;BME280;71755;48.038;14.346;2023-11-25T12:13:03;96480.88;;;-0.36;80.08
82171;BME280;71755;48.038;14.346;2023-11-25T12:15:30;96475.63;;;-0.36;79.95
82171;BME280;71755;48.038;14.346;2023-11-25T12:17:56;96471.00;;;-0.34;79.79
82171;BME280;71755;48.038;14.346;2023-11-25T12:20:22;96471.00;;;-0.34;79.12
82171;BME280;71755;48.038;14.346;2023-11-25T12:22:48;96481.69;;;-0.29;79.09
82171;BME280;71755;48.038;14.346;2023-11-25T12:25:14;96479.66;;;-0.27;77.95
82171;BME280;71755;48.038;14.346;2023-11-25T12:27:52;96483.91;;;-0.26;79.14
82171;BME280;71755;48.038;14.346;2023-11-25T12:30:19;96495.81;;;-0.23;78.01
82171;BME280;71755;48.038;14.346;2023-11-25T12:32:45;96490.56;;;-0.23;79.64
82171;BME280;71755;48.038;14.346;2023-11-25T12:35:11;96493.00;;;-0.22;77.87
82171;BME280;71755;48.038;14.346;2023-11-25T12:37:40;96487.75;;;-0.22;79.22
82171;BME280;71755;48.038;14.346;2023-11-25T12:42:44;96497.22;;;-0.21;78.67
82171;BME280;71755;48.038;14.346;2023-11-25T12:45:26;96487.75;;;-0.22;79.82
82171;BME280;71755;48.038;14.346;2023-11-25T12:47:52;96474.00;;;-0.24;80.82
82171;BME280;71755;48.038;14.346;2023-11-25T12:50:18;96485.31;;;-0.17;79.11
82171;BME280;71755;48.038;14.346;2023-11-25T12:52:46;96490.16;;;-0.20;79.38
82171;BME280;71755;48.038;14.346;2023-11-25T12:55:33;96478.44;;;-0.18;80.56
82171;BME280;71755;48.038;14.346;2023-11-25T12:58:07;96486.91;;;-0.16;79.39
82171;BME280;71755;48.038;14.346;2023-11-25T13:00:33;96485.31;;;-0.17;80.23